Time;durP1;ratioP1;P1;durP2;ratioP2;P2;SDS_P1;SDS_P2;PMS_P1;PMS_P2;Temp;Humidity;BMP_temperature;BMP_pressure;BME280_temperature;BME280_humidity;BME280_pressure;Samples;Min_cycle;Max_cycle;Signal;HPM_P1;HPM_P2
2021/06/04 00:00:19;;;;;;;;;;;;;;;23.33;47.88;101771.50;2089241;28;4006;-74
2021/06/04 00:01:20;;;;;;;;;;;;;;;23.32;47.82;101758.38;2089008;28;3847;-74
2021/06/04 00:02:21;;;;;;;;;;;;;;;23.33;47.99;101760.06;2089618;28;4179;-74
2021/06/04 00:03:23;;;;;;;;;;;;;;;23.32;47.88;101762.09;2089671;28;3837;-74
2021/06/04 00:04:24;;;;;;;;;;;;;;;23.32;47.86;101758.38;2088910;28;4017;-74
2021/06/04 00:05:25;;;;;;;;;;;;;;;23.32;47.81;101755.53;2089502;28;3807;-73
2021/06/04 00:06:26;;;;;;;;;;;;;;;23.33;47.85;101757.22;2089075;28;3863;-74
2021/06/04 00:07:27;;;;;;;;;;;;;;;23.32;47.96;101762.09;2088385;28;3903;-74
2021/06/04 00:08:29;;;;;;;;;;;;;;;23.32;47.93;101750.69;2088993;28;4075;-73
2021/06/04 00:09:30;;;;;;;;;;;;;;;23.32;47.89;101762.09;2089295;28;4086;-74
2021/06/04 00:10:31;;;;;;;;;;;;;;;23.33;47.83;101754.34;2089317;28;3977;-74
2021/06/04 00:11:32;;;;;;;;;;;;;;;23.32;47.82;101750.69;2089594;28;3960;-74
2021/06/04 00:12:34;;;;;;;;;;;;;;;23.32;47.82;101750.69;2090235;28;3962;-75
2021/06/04 00:13:35;;;;;;;;;;;;;;;23.33;47.80;101762.94;2089331;28;5072;-75
2021/06/04 00:14:36;;;;;;;;;;;;;;;23.33;47.81;101757.22;2089377;28;4003;-75
2021/06/04 00:15:37;;;;;;;;;;;;;;;23.33;47.93;101762.94;2089626;28;5031;-75
2021/06/04 00:16:39;;;;;;;;;;;;;;;23.32;47.81;101764.09;2088503;28;4036;-74
2021/06/04 00:17:42;;;;;;;;;;;;;;;23.31;47.80;101763.25;2089686;28;3942;-74
2021/06/04 00:18:43;;;;;;;;;;;;;;;23.33;47.83;101757.22;2087877;28;4075;-75
2021/06/04 00:19:44;;;;;;;;;;;;;;;23.32;47.83;101762.09;2088336;28;3989;-73
2021/06/04 00:20:46;;;;;;;;;;;;;;;23.33;47.81;101765.78;2088771;28;3840;-75
2021/06/04 00:21:47;;;;;;;;;;;;;;;23.33;47.86;101760.06;2089626;28;5323;-74
2021/06/04 00:22:48;;;;;;;;;;;;;;;23.33;47.86;101754.34;2087929;28;4091;-74
2021/06/04 00:23:49;;;;;;;;;;;;;;;23.32;47.84;101758.38;2090503;28;3996;-74
2021/06/04 00:24:50;;;;;;;;;;;;;;;23.32;47.85;101756.38;2096405;28;4154;-75
2021/06/04 00:25:52;;;;;;;;;;;;;;;23.33;47.79;101760.91;2097936;28;3860;-74
2021/06/04 00:26:53;;;;;;;;;;;;;;;23.32;47.78;101753.53;2097526;28;4024;-74
2021/06/04 00:27:54;;;;;;;;;;;;;;;23.33;47.82;101751.50;2096853;28;3998;-73
2021/06/04 00:28:55;;;;;;;;;;;;;;;23.32;47.88;101750.69;2097023;28;4013;-73
2021/06/04 00:29:56;;;;;;;;;;;;;;;23.33;47.89;101752.34;2098119;28;4028;-73
2021/06/04 00:30:58;;;;;;;;;;;;;;;23.33;47.77;101749.47;2095727;28;4076;-73
2021/06/04 00:31:59;;;;;;;;;;;;;;;23.33;47.76;101751.50;2097353;28;3907;-73
2021/06/04 00:33:00;;;;;;;;;;;;;;;23.33;47.66;101745.78;2089150;28;4101;-74
2021/06/04 00:34:01;;;;;;;;;;;;;;;23.33;47.85;101748.66;2088536;28;3998;-75
2021/06/04 00:35:03;;;;;;;;;;;;;;;23.33;47.75;101754.34;2097685;28;4210;-74
2021/06/04 00:36:04;;;;;;;;;;;;;;;23.33;47.85;101748.66;2098671;28;4025;-75
2021/06/04 00:37:05;;;;;;;;;;;;;;;23.34;47.87;101753.16;2098337;28;4072;-74
2021/06/04 00:38:06;;;;;;;;;;;;;;;23.32;47.78;101750.69;2097466;28;4211;-75
2021/06/04 00:39:07;;;;;;;;;;;;;;;23.34;47.77;101756.03;2097691;28;3812;-75
2021/06/04 00:40:09;;;;;;;;;;;;;;;23.33;47.94;101755.19;2097332;28;4051;-74
2021/06/04 00:41:10;;;;;;;;;;;;;;;23.33;47.74;101758.03;2098312;28;4077;-73
2021/06/04 00:42:11;;;;;;;;;;;;;;;23.33;47.79;101751.50;2095288;28;3856;-73
2021/06/04 00:43:12;;;;;;;;;;;;;;;23.34;47.78;101764.59;2098090;28;4067;-73
2021/06/04 00:44:13;;;;;;;;;;;;;;;23.33;47.80;101760.06;2096087;28;4005;-72
2021/06/04 00:45:15;;;;;;;;;;;;;;;23.33;47.76;101754.34;2098568;28;5072;-73
2021/06/04 00:46:16;;;;;;;;;;;;;;;23.32;47.79;101759.25;2094075;28;3859;-75
2021/06/04 00:47:18;;;;;;;;;;;;;;;23.33;47.88;101758.03;2097909;28;4056;-75
2021/06/04 00:48:19;;;;;;;;;;;;;;;23.33;47.77;101758.03;2098260;28;3878;-74
2021/06/04 00:49:20;;;;;;;;;;;;;;;23.32;47.80;101759.25;2096729;28;3831;-73
2021/06/04 00:50:21;;;;;;;;;;;;;;;23.32;47.86;101756.38;2097466;28;3982;-73
2021/06/04 00:51:22;;;;;;;;;;;;;;;23.33;47.85;101762.94;2093728;28;4022;-73
2021/06/04 00:52:26;;;;;;;;;;;;;;;23.32;47.90;101756.38;2096610;28;3994;-74
2021/06/04 00:53:28;;;;;;;;;;;;;;;23.34;47.91;101770.28;2097442;28;3890;-73
2021/06/04 00:54:29;;;;;;;;;;;;;;;23.33;47.84;101757.22;2097155;28;3859;-73
2021/06/04 00:55:30;;;;;;;;;;;;;;;23.33;47.77;101760.06;2097152;28;4033;-73
2021/06/04 00:56:31;;;;;;;;;;;;;;;23.33;47.87;101765.78;2096671;28;3844;-73
2021/06/04 00:57:32;;;;;;;;;;;;;;;23.33;47.84;101762.94;2098063;28;3982;-73
2021/06/04 00:58:34;;;;;;;;;;;;;;;23.32;47.89;101759.25;2097419;28;4020;-73
2021/06/04 00:59:38;;;;;;;;;;;;;;;23.33;47.96;101760.06;2096855;28;3806;-73
2021/06/04 01:00:40;;;;;;;;;;;;;;;23.33;47.86;101758.03;2096134;28;3809;-73
2021/06/04 01:01:41;;;;;;;;;;;;;;;23.32;47.71;101761.22;2097800;28;3818;-74
2021/06/04 01:02:42;;;;;;;;;;;;;;;23.33;47.85;101758.03;2096752;28;3812;-73
2021/06/04 01:03:44;;;;;;;;;;;;;;;23.33;47.81;101762.94;2098043;28;3807;-73
2021/06/04 01:04:45;;;;;;;;;;;;;;;23.34;47.85;101764.59;2096917;28;3985;-73
2021/06/04 01:05:46;;;;;;;;;;;;;;;23.33;47.85;101757.22;2097142;28;3931;-73
2021/06/04 01:06:48;;;;;;;;;;;;;;;23.33;47.87;101757.22;2096393;28;3821;-73
2021/06/04 01:07:49;;;;;;;;;;;;;;;23.33;47.77;101757.22;2097309;28;4108;-73
2021/06/04 01:08:50;;;;;;;;;;;;;;;23.33;47.86;101754.34;2098548;28;3920;-73
2021/06/04 01:09:51;;;;;;;;;;;;;;;23.33;47.79;101754.34;2096929;28;3993;-73
2021/06/04 01:10:52;;;;;;;;;;;;;;;23.32;47.74;101762.09;2096711;28;3996;-73
2021/06/04 01:11:54;;;;;;;;;;;;;;;23.34;47.76;101761.72;2094178;28;4099;-73
2021/06/04 01:12:55;;;;;;;;;;;;;;;23.33;47.75;101757.22;2093694;28;4045;-73
2021/06/04 01:13:57;;;;;;;;;;;;;;;23.34;47.78;101756.03;2097102;28;4956;-73
2021/06/04 01:14:58;;;;;;;;;;;;;;;23.33;47.82;101755.19;2097140;28;3917;-73
2021/06/04 01:15:59;;;;;;;;;;;;;;;23.33;47.81;101760.06;2095787;28;4026;-73
2021/06/04 01:17:01;;;;;;;;;;;;;;;23.32;47.76;101759.25;2097100;28;3933;-73
2021/06/04 01:18:02;;;;;;;;;;;;;;;23.32;47.71;101756.38;2094538;28;5418;-73
2021/06/04 01:19:04;;;;;;;;;;;;;;;23.33;47.72;101757.22;2096915;28;3758;-74
2021/06/04 01:20:05;;;;;;;;;;;;;;;23.33;47.79;101755.19;2082392;28;4077;-74
2021/06/04 01:21:06;;;;;;;;;;;;;;;23.33;47.85;101754.34;2083427;28;3912;-73
2021/06/04 01:22:07;;;;;;;;;;;;;;;23.32;47.69;101759.25;2097207;28;3999;-73
2021/06/04 01:23:09;;;;;;;;;;;;;;;23.33;47.71;101757.22;2098214;28;3851;-74
2021/06/04 01:24:10;;;;;;;;;;;;;;;23.33;47.66;101757.22;2097519;28;4082;-73
2021/06/04 01:25:11;;;;;;;;;;;;;;;23.33;47.69;101758.03;2097627;28;4020;-73
2021/06/04 01:26:13;;;;;;;;;;;;;;;23.33;47.68;101757.22;2095982;28;3771;-73
2021/06/04 01:27:14;;;;;;;;;;;;;;;23.33;47.65;101760.06;2095135;28;3881;-73
2021/06/04 01:28:15;;;;;;;;;;;;;;;23.33;47.75;101757.22;2095639;28;4018;-73
2021/06/04 01:29:16;;;;;;;;;;;;;;;23.33;47.76;101760.06;2092939;28;3821;-74
2021/06/04 01:30:18;;;;;;;;;;;;;;;23.32;47.78;101758.38;2095283;28;4037;-74
2021/06/04 01:31:19;;;;;;;;;;;;;;;23.32;47.67;101756.38;2092948;28;4204;-73
2021/06/04 01:32:20;;;;;;;;;;;;;;;23.32;47.75;101759.25;2089757;28;4121;-73
2021/06/04 01:33:21;;;;;;;;;;;;;;;23.32;47.72;101762.09;2091924;28;4104;-74
2021/06/04 01:34:23;;;;;;;;;;;;;;;23.33;47.67;101757.22;2094730;28;3998;-73
2021/06/04 01:35:24;;;;;;;;;;;;;;;23.33;47.68;101762.94;2098173;28;4020;-74
2021/06/04 01:36:25;;;;;;;;;;;;;;;23.33;47.77;101762.94;2096589;28;3984;-74
2021/06/04 01:37:27;;;;;;;;;;;;;;;23.32;47.57;101762.09;2094663;28;3990;-74
2021/06/04 01:38:28;;;;;;;;;;;;;;;23.33;47.72;101762.94;2093785;28;4015;-74
2021/06/04 01:39:30;;;;;;;;;;;;;;;23.33;47.59;101760.06;2097379;28;5198;-74
2021/06/04 01:40:31;;;;;;;;;;;;;;;23.32;47.72;101759.25;2095422;28;3916;-73
2021/06/04 01:41:32;;;;;;;;;;;;;;;23.32;47.66;101759.25;2095572;28;3897;-74
2021/06/04 01:42:33;;;;;;;;;;;;;;;23.32;47.64;101758.38;2097050;28;3820;-74
2021/06/04 01:43:35;;;;;;;;;;;;;;;23.32;47.73;101761.22;2097242;28;3999;-74
2021/06/04 01:44:36;;;;;;;;;;;;;;;23.32;47.66;101764.94;2097286;28;4016;-74
2021/06/04 01:45:37;;;;;;;;;;;;;;;23.32;47.64;101756.38;2096240;28;3865;-74
2021/06/04 01:46:38;;;;;;;;;;;;;;;23.32;47.62;101762.09;2097184;28;4069;-73
2021/06/04 01:47:39;;;;;;;;;;;;;;;23.33;47.62;101757.22;2097493;28;3884;-73
2021/06/04 01:48:41;;;;;;;;;;;;;;;23.32;47.66;101764.09;2095062;28;3985;-74
2021/06/04 01:49:42;;;;;;;;;;;;;;;23.33;47.68;101760.06;2097046;28;4040;-73
2021/06/04 01:50:43;;;;;;;;;;;;;;;23.33;47.63;101765.78;2096816;28;3992;-73
2021/06/04 01:51:44;;;;;;;;;;;;;;;23.33;47.60;101760.06;2096929;28;3809;-75
2021/06/04 01:52:45;;;;;;;;;;;;;;;23.32;47.71;101758.38;2097660;28;4349;-74
2021/06/04 01:53:47;;;;;;;;;;;;;;;23.33;47.77;101760.06;2097580;28;5309;-74
2021/06/04 01:54:48;;;;;;;;;;;;;;;23.34;47.73;101764.59;2096651;28;3762;-74
2021/06/04 01:55:49;;;;;;;;;;;;;;;23.33;47.64;101762.94;2098226;28;4970;-75
2021/06/04 01:56:50;;;;;;;;;;;;;;;23.32;47.58;101764.94;2097416;28;5263;-75
2021/06/04 01:57:51;;;;;;;;;;;;;;;23.33;47.63;101762.94;2097055;28;3856;-74
2021/06/04 01:58:53;;;;;;;;;;;;;;;23.33;47.55;101765.78;2095842;28;3868;-75
2021/06/04 01:59:54;;;;;;;;;;;;;;;23.33;47.64;101771.50;2097071;28;4276;-75
2021/06/04 02:00:55;;;;;;;;;;;;;;;23.33;47.72;101758.03;2096469;28;4217;-75
2021/06/04 02:01:56;;;;;;;;;;;;;;;23.33;47.62;101757.22;2096588;28;4021;-75
2021/06/04 02:02:58;;;;;;;;;;;;;;;23.33;47.57;101766.59;2097638;28;3823;-75
2021/06/04 02:03:59;;;;;;;;;;;;;;;23.33;47.70;101760.06;2095839;28;3978;-73
2021/06/04 02:05:00;;;;;;;;;;;;;;;23.33;47.61;101760.06;2097053;28;4011;-73
2021/06/04 02:06:02;;;;;;;;;;;;;;;23.33;47.62;101760.91;2097639;28;4068;-73
2021/06/04 02:07:03;;;;;;;;;;;;;;;23.33;47.66;101765.78;2095302;28;3835;-73
2021/06/04 02:08:04;;;;;;;;;;;;;;;23.34;47.67;101767.44;2097796;28;3842;-73
2021/06/04 02:09:05;;;;;;;;;;;;;;;23.33;47.60;101763.75;2096596;28;4262;-73
2021/06/04 02:10:06;;;;;;;;;;;;;;;23.34;47.63;101767.44;2096577;28;4018;-74
2021/06/04 02:11:08;;;;;;;;;;;;;;;23.33;47.61;101763.75;2097693;28;3839;-74
2021/06/04 02:12:09;;;;;;;;;;;;;;;23.33;47.57;101766.59;2096892;28;4029;-75
2021/06/04 02:13:10;;;;;;;;;;;;;;;23.33;47.77;101765.78;2097140;28;5224;-75
2021/06/04 02:14:11;;;;;;;;;;;;;;;23.33;47.76;101772.31;2096467;28;4087;-75
2021/06/04 02:15:13;;;;;;;;;;;;;;;23.33;47.67;101763.75;2097950;28;3991;-75
2021/06/04 02:16:14;;;;;;;;;;;;;;;23.33;47.67;101771.50;2094571;28;3844;-75
2021/06/04 02:17:15;;;;;;;;;;;;;;;23.33;47.63;101772.31;2096969;28;3924;-75
2021/06/04 02:18:16;;;;;;;;;;;;;;;23.33;47.65;101765.78;2097500;28;3907;-75
2021/06/04 02:19:18;;;;;;;;;;;;;;;23.33;47.68;101763.75;2095619;28;4146;-75
2021/06/04 02:20:19;;;;;;;;;;;;;;;23.33;47.60;101760.06;2095985;28;4070;-75
2021/06/04 02:21:20;;;;;;;;;;;;;;;23.33;47.69;101757.22;2096764;28;3844;-75
2021/06/04 02:22:21;;;;;;;;;;;;;;;23.35;47.80;101760.56;2097598;28;4078;-75
2021/06/04 02:23:23;;;;;;;;;;;;;;;23.34;47.67;101750.31;2096962;28;3736;-74
2021/06/04 02:24:24;;;;;;;;;;;;;;;23.33;47.58;101752.34;2096729;28;3767;-74
2021/06/04 02:25:26;;;;;;;;;;;;;;;23.33;47.65;101752.34;2096311;28;3754;-75
2021/06/04 02:26:27;;;;;;;;;;;;;;;23.33;47.58;101748.66;2097684;28;4037;-76
2021/06/04 02:27:28;;;;;;;;;;;;;;;23.33;47.57;101742.94;2094664;28;4083;-75
2021/06/04 02:28:29;;;;;;;;;;;;;;;23.33;47.62;101742.94;2096071;28;3845;-75
2021/06/04 02:29:31;;;;;;;;;;;;;;;23.34;47.66;101756.84;2096207;28;4224;-76
2021/06/04 02:30:32;;;;;;;;;;;;;;;23.33;47.72;101743.75;2094630;28;4001;-76
2021/06/04 02:31:33;;;;;;;;;;;;;;;23.35;47.75;101752.00;2096663;28;3825;-75
2021/06/04 02:32:35;;;;;;;;;;;;;;;23.34;47.73;101745.44;2094735;28;4083;-77
2021/06/04 02:33:36;;;;;;;;;;;;;;;23.33;47.78;101746.63;2096219;28;3983;-75
2021/06/04 02:34:37;;;;;;;;;;;;;;;23.33;47.62;101740.91;2095422;28;4009;-75
2021/06/04 02:35:39;;;;;;;;;;;;;;;23.33;47.65;101746.63;2096186;28;3952;-75
2021/06/04 02:36:40;;;;;;;;;;;;;;;23.34;47.75;101748.28;2095643;28;4005;-76
2021/06/04 02:37:42;;;;;;;;;;;;;;;23.34;47.74;101744.59;2096106;28;3976;-75
2021/06/04 02:38:43;;;;;;;;;;;;;;;23.34;47.61;101736.03;2097020;28;3842;-75
2021/06/04 02:39:44;;;;;;;;;;;;;;;23.34;47.93;101738.88;2096290;28;3854;-75
2021/06/04 02:40:45;;;;;;;;;;;;;;;23.34;47.79;101742.56;2095266;28;3847;-75
2021/06/04 02:41:47;;;;;;;;;;;;;;;23.34;47.73;101736.84;2096600;28;4916;-74
2021/06/04 02:42:48;;;;;;;;;;;;;;;23.34;47.69;101741.75;2097413;28;3902;-74
2021/06/04 02:43:49;;;;;;;;;;;;;;;23.34;47.69;101733.16;2096107;28;4088;-75
2021/06/04 02:44:51;;;;;;;;;;;;;;;23.33;47.71;101738.06;2096313;28;4012;-74
2021/06/04 02:45:52;;;;;;;;;;;;;;;23.34;47.76;101736.03;2095507;28;4345;-75
2021/06/04 02:46:53;;;;;;;;;;;;;;;23.34;47.82;101741.75;2088499;28;5232;-74
2021/06/04 02:47:54;;;;;;;;;;;;;;;23.34;47.77;101739.72;2087169;28;4037;-75
2021/06/04 02:48:56;;;;;;;;;;;;;;;23.34;47.79;101744.59;2095039;28;4198;-76
2021/06/04 02:49:57;;;;;;;;;;;;;;;23.34;47.82;101739.72;2095146;28;3992;-76
2021/06/04 02:50:58;;;;;;;;;;;;;;;23.35;47.80;101737.72;2096897;28;4083;-75
2021/06/04 02:51:59;;;;;;;;;;;;;;;23.33;47.88;101735.19;2096911;28;3839;-75
2021/06/04 02:53:01;;;;;;;;;;;;;;;23.34;47.77;101739.72;2096956;28;4007;-73
2021/06/04 02:54:02;;;;;;;;;;;;;;;23.34;47.84;101742.56;2097384;28;5138;-73
2021/06/04 02:55:03;;;;;;;;;;;;;;;23.34;47.81;101739.72;2094339;28;4055;-73
2021/06/04 02:56:04;;;;;;;;;;;;;;;23.34;47.80;101736.03;2096414;28;3858;-74
2021/06/04 02:57:07;;;;;;;;;;;;;;;23.34;47.89;101736.84;2097166;28;3860;-73
2021/06/04 02:58:08;;;;;;;;;;;;;;;23.34;47.86;101738.88;2095349;28;3993;-73
2021/06/04 02:59:09;;;;;;;;;;;;;;;23.33;47.86;101737.22;2094824;28;4108;-71
2021/06/04 03:00:10;;;;;;;;;;;;;;;23.34;47.87;101738.88;2093924;28;4109;-72
2021/06/04 03:01:12;;;;;;;;;;;;;;;23.34;47.86;101742.56;2096781;28;3778;-73
2021/06/04 03:02:13;;;;;;;;;;;;;;;23.34;48.06;101736.84;2097362;28;5085;-73
2021/06/04 03:03:14;;;;;;;;;;;;;;;23.34;47.94;101739.72;2097147;28;4056;-73
2021/06/04 03:04:15;;;;;;;;;;;;;;;23.36;47.96;101741.41;2094940;28;4131;-73
2021/06/04 03:05:17;;;;;;;;;;;;;;;23.35;47.88;101737.72;2097413;28;3944;-73
2021/06/04 03:06:18;;;;;;;;;;;;;;;23.35;47.90;101743.44;2096354;28;3995;-73
2021/06/04 03:07:19;;;;;;;;;;;;;;;23.34;48.01;101742.56;2096801;28;4008;-73
2021/06/04 03:08:21;;;;;;;;;;;;;;;23.34;48.06;101748.28;2096954;28;3817;-73
2021/06/04 03:09:23;;;;;;;;;;;;;;;23.34;47.98;101738.88;2095513;28;4031;-73
2021/06/04 03:10:24;;;;;;;;;;;;;;;23.34;48.02;101739.72;2096812;28;4039;-73
2021/06/04 03:11:25;;;;;;;;;;;;;;;23.34;47.98;101736.84;2095823;28;3890;-73
2021/06/04 03:12:26;;;;;;;;;;;;;;;23.34;47.99;101739.72;2096358;28;3994;-74
2021/06/04 03:13:28;;;;;;;;;;;;;;;23.34;48.01;101739.72;2096896;28;4063;-75
2021/06/04 03:14:29;;;;;;;;;;;;;;;23.36;48.17;101735.69;2096248;28;4013;-75
2021/06/04 03:15:31;;;;;;;;;;;;;;;23.36;48.15;101732.84;2096354;28;3997;-75
2021/06/04 03:16:32;;;;;;;;;;;;;;;23.35;48.21;101729.16;2095055;28;4009;-74
2021/06/04 03:17:34;;;;;;;;;;;;;;;23.35;47.97;101726.31;2097406;28;3818;-74
2021/06/04 03:18:35;;;;;;;;;;;;;;;23.35;48.00;101734.88;2096716;28;3889;-73
2021/06/04 03:19:36;;;;;;;;;;;;;;;23.34;48.02;101725.44;2093680;28;3847;-73
2021/06/04 03:20:37;;;;;;;;;;;;;;;23.36;48.16;101732.84;2094834;28;3864;-75
2021/06/04 03:21:38;;;;;;;;;;;;;;;23.35;48.14;101729.16;2093532;28;4018;-73
2021/06/04 03:22:40;;;;;;;;;;;;;;;23.36;48.15;101727.97;2093957;28;3972;-76
2021/06/04 03:23:41;;;;;;;;;;;;;;;23.36;48.00;101735.69;2095450;28;3830;-74
2021/06/04 03:24:42;;;;;;;;;;;;;;;23.36;48.21;101732.84;2095000;28;3842;-77
2021/06/04 03:25:43;;;;;;;;;;;;;;;23.36;48.15;101727.97;2096042;28;3987;-75
2021/06/04 03:26:46;;;;;;;;;;;;;;;23.36;48.28;101727.97;2096459;28;4102;-74
2021/06/04 03:27:47;;;;;;;;;;;;;;;23.37;48.22;101723.06;2095154;28;5041;-74
2021/06/04 03:28:48;;;;;;;;;;;;;;;23.36;48.24;101725.09;2096976;28;4973;-74
2021/06/04 03:29:49;;;;;;;;;;;;;;;23.36;48.16;101727.97;2095422;28;5135;-74
2021/06/04 03:30:51;;;;;;;;;;;;;;;23.36;48.18;101727.13;2096197;28;3847;-73
2021/06/04 03:31:52;;;;;;;;;;;;;;;23.37;48.21;101728.78;2095999;28;3999;-73
2021/06/04 03:32:53;;;;;;;;;;;;;;;23.36;48.24;101733.66;2096113;28;3812;-75
2021/06/04 03:33:55;;;;;;;;;;;;;;;23.36;48.18;101730.81;2093594;28;3991;-74
2021/06/04 03:34:56;;;;;;;;;;;;;;;23.37;48.26;101743.06;2096296;28;4007;-74
2021/06/04 03:35:58;;;;;;;;;;;;;;;23.36;48.33;101736.53;2096143;28;3863;-74
2021/06/04 03:36:59;;;;;;;;;;;;;;;23.36;48.36;101739.38;2095899;28;3996;-74
2021/06/04 03:38:00;;;;;;;;;;;;;;;23.36;48.31;101739.38;2097002;28;3879;-74
2021/06/04 03:39:01;;;;;;;;;;;;;;;23.36;48.27;101741.41;2096352;28;5273;-74
2021/06/04 03:40:02;;;;;;;;;;;;;;;23.36;48.38;101747.94;2095434;28;4027;-74
2021/06/04 03:41:04;;;;;;;;;;;;;;;23.36;48.43;101745.09;2096567;28;4116;-75
2021/06/04 03:42:05;;;;;;;;;;;;;;;23.36;48.32;101753.66;2097059;28;4178;-75
2021/06/04 03:43:06;;;;;;;;;;;;;;;23.37;48.34;101745.94;2097335;28;3858;-74
2021/06/04 03:44:07;;;;;;;;;;;;;;;23.36;48.31;101744.25;2096170;28;3851;-75
2021/06/04 03:45:09;;;;;;;;;;;;;;;23.36;48.29;101750.81;2097583;28;3997;-74
2021/06/04 03:46:10;;;;;;;;;;;;;;;23.36;48.28;101736.53;2097161;28;4026;-76
2021/06/04 03:47:11;;;;;;;;;;;;;;;23.36;48.21;101745.09;2096117;28;4013;-74
2021/06/04 03:48:12;;;;;;;;;;;;;;;23.36;48.27;101742.25;2095535;28;4075;-75
2021/06/04 03:49:14;;;;;;;;;;;;;;;23.36;48.36;101745.09;2087411;28;4013;-74
2021/06/04 03:50:15;;;;;;;;;;;;;;;23.36;48.36;101738.56;2087782;28;4011;-74
2021/06/04 03:51:16;;;;;;;;;;;;;;;23.37;48.33;101734.50;2097323;28;4006;-73
2021/06/04 03:52:20;;;;;;;;;;;;;;;23.36;48.37;101738.56;2095890;28;4059;-73
2021/06/04 03:53:21;;;;;;;;;;;;;;;23.36;48.34;101745.09;2097350;28;3979;-74
2021/06/04 03:54:22;;;;;;;;;;;;;;;23.36;48.36;101741.41;2086534;28;3982;-74
2021/06/04 03:55:25;;;;;;;;;;;;;;;23.36;48.33;101742.25;2087889;28;4014;-74
2021/06/04 03:56:26;;;;;;;;;;;;;;;23.36;48.38;101738.56;2097233;28;4386;-73
2021/06/04 03:57:27;;;;;;;;;;;;;;;23.36;48.38;101732.84;2095580;28;4183;-74
2021/06/04 03:58:28;;;;;;;;;;;;;;;23.36;48.43;101742.25;2096956;28;5097;-74
2021/06/04 03:59:30;;;;;;;;;;;;;;;23.37;48.37;101731.66;2095418;28;4086;-74
2021/06/04 04:00:31;;;;;;;;;;;;;;;23.36;48.38;101729.97;2093298;28;3808;-74
2021/06/04 04:01:33;;;;;;;;;;;;;;;23.36;48.43;101730.81;2096899;28;4115;-74
2021/06/04 04:02:34;;;;;;;;;;;;;;;23.35;48.32;101732.00;2096225;28;3980;-75
2021/06/04 04:03:35;;;;;;;;;;;;;;;23.36;48.49;101725.09;2096952;28;3807;-75
2021/06/04 04:04:37;;;;;;;;;;;;;;;23.36;48.28;101722.25;2095555;28;3993;-74
2021/06/04 04:05:38;;;;;;;;;;;;;;;23.37;48.46;101728.78;2097190;28;3982;-74
2021/06/04 04:06:39;;;;;;;;;;;;;;;23.37;48.34;101737.34;2095801;28;4013;-75
2021/06/04 04:07:40;;;;;;;;;;;;;;;23.37;48.39;101732.47;2093671;28;3954;-74
2021/06/04 04:08:41;;;;;;;;;;;;;;;23.36;48.32;101725.09;2097208;28;3825;-75
2021/06/04 04:09:43;;;;;;;;;;;;;;;23.36;48.43;101719.38;2096512;28;3998;-74
2021/06/04 04:10:44;;;;;;;;;;;;;;;23.37;48.33;101728.78;2096735;28;3851;-74
2021/06/04 04:11:45;;;;;;;;;;;;;;;23.37;48.33;101729.63;2083795;28;3957;-74
2021/06/04 04:12:49;;;;;;;;;;;;;;;23.37;48.39;101734.50;2087187;28;3795;-75
2021/06/04 04:13:50;;;;;;;;;;;;;;;23.37;48.42;101734.50;2096785;28;3969;-75
2021/06/04 04:14:51;;;;;;;;;;;;;;;23.37;48.39;101726.75;2096347;28;5126;-75
2021/06/04 04:15:52;;;;;;;;;;;;;;;23.36;48.33;101722.25;2096855;28;3851;-75
2021/06/04 04:16:54;;;;;;;;;;;;;;;23.36;48.31;101733.66;2092414;28;4183;-75
2021/06/04 04:17:55;;;;;;;;;;;;;;;23.36;48.43;101730.81;2094999;28;4978;-74
2021/06/04 04:18:56;;;;;;;;;;;;;;;23.37;48.31;101732.47;2094207;28;4138;-75
2021/06/04 04:19:57;;;;;;;;;;;;;;;23.36;48.33;101727.97;2094089;28;3795;-74
2021/06/04 04:20:58;;;;;;;;;;;;;;;23.36;48.33;101730.81;2095637;28;5322;-75
2021/06/04 04:22:00;;;;;;;;;;;;;;;23.36;48.42;101727.97;2097829;28;4046;-75
2021/06/04 04:23:01;;;;;;;;;;;;;;;23.36;48.26;101719.38;2095329;28;3879;-75
2021/06/04 04:24:02;;;;;;;;;;;;;;;23.36;48.25;101727.13;2098303;28;4009;-75
2021/06/04 04:25:04;;;;;;;;;;;;;;;23.37;48.36;101723.91;2097143;28;4145;-75
2021/06/04 04:26:05;;;;;;;;;;;;;;;23.36;48.40;101724.28;2098764;28;3966;-75
2021/06/04 04:27:06;;;;;;;;;;;;;;;23.36;48.27;101727.97;2098632;28;4974;-75
2021/06/04 04:28:07;;;;;;;;;;;;;;;23.36;48.45;101722.25;2096665;28;3851;-75
2021/06/04 04:29:09;;;;;;;;;;;;;;;23.36;48.30;101722.25;2096967;28;4035;-75
2021/06/04 04:30:10;;;;;;;;;;;;;;;23.36;48.30;101725.09;2098340;28;4041;-75
2021/06/04 04:31:11;;;;;;;;;;;;;;;23.34;48.23;101722.59;2096615;28;4067;-75
2021/06/04 04:32:13;;;;;;;;;;;;;;;23.36;48.21;101727.97;2098863;28;4142;-75
2021/06/04 04:33:14;;;;;;;;;;;;;;;23.36;48.19;101730.81;2097464;28;4031;-75
2021/06/04 04:34:15;;;;;;;;;;;;;;;23.37;48.26;101737.34;2097181;28;3970;-75
2021/06/04 04:35:16;;;;;;;;;;;;;;;23.37;48.31;101737.34;2098468;28;6478;-75
2021/06/04 04:36:18;;;;;;;;;;;;;;;23.37;48.34;101735.34;2097235;28;3919;-74
2021/06/04 04:37:19;;;;;;;;;;;;;;;23.37;48.29;101740.22;2098070;28;4019;-75
2021/06/04 04:38:21;;;;;;;;;;;;;;;23.36;48.32;101727.97;2096096;28;4085;-75
2021/06/04 04:39:22;;;;;;;;;;;;;;;23.37;48.29;101737.34;2096914;28;4034;-74
2021/06/04 04:40:23;;;;;;;;;;;;;;;23.36;48.31;101739.38;2098179;28;3842;-75
2021/06/04 04:41:24;;;;;;;;;;;;;;;23.36;48.21;101739.38;2097414;28;5327;-75
2021/06/04 04:42:26;;;;;;;;;;;;;;;23.36;48.22;101750.81;2096877;28;3838;-74
2021/06/04 04:43:27;;;;;;;;;;;;;;;23.37;48.10;101752.47;2095351;28;3995;-75
2021/06/04 04:44:28;;;;;;;;;;;;;;;23.37;48.25;101751.63;2098053;28;4008;-75
2021/06/04 04:45:29;;;;;;;;;;;;;;;23.37;48.16;101749.59;2095652;28;4004;-75
2021/06/04 04:46:31;;;;;;;;;;;;;;;23.37;48.16;101751.63;2097235;28;3976;-75
2021/06/04 04:47:32;;;;;;;;;;;;;;;23.37;48.31;101751.63;2096106;28;3994;-75
2021/06/04 04:48:33;;;;;;;;;;;;;;;23.36;48.16;101756.50;2097035;28;3869;-74
2021/06/04 04:49:34;;;;;;;;;;;;;;;23.36;48.16;101753.66;2094250;28;3817;-74
2021/06/04 04:50:36;;;;;;;;;;;;;;;23.37;48.24;101743.91;2096456;28;3832;-74
2021/06/04 04:51:39;;;;;;;;;;;;;;;23.37;48.11;101745.94;2096088;28;3965;-74
2021/06/04 04:52:40;;;;;;;;;;;;;;;23.36;48.15;101736.53;2094371;28;4000;-74
2021/06/04 04:53:41;;;;;;;;;;;;;;;23.36;48.13;101736.53;2095182;28;4065;-75
2021/06/04 04:54:43;;;;;;;;;;;;;;;23.37;48.11;101732.47;2096966;28;5041;-74
2021/06/04 04:55:44;;;;;;;;;;;;;;;23.37;48.17;101728.78;2094789;28;4010;-74
2021/06/04 04:56:47;;;;;;;;;;;;;;;23.36;48.15;101733.66;2097141;28;3984;-74
2021/06/04 04:57:49;;;;;;;;;;;;;;;23.36;48.00;101727.13;2096221;28;4520;-74
2021/06/04 04:58:50;;;;;;;;;;;;;;;23.36;48.01;101725.09;2094014;28;4349;-75
2021/06/04 04:59:51;;;;;;;;;;;;;;;23.37;48.11;101729.63;2097118;28;3846;-75
2021/06/04 05:00:54;;;;;;;;;;;;;;;23.36;48.02;101725.09;2094868;28;4012;-75
2021/06/04 05:01:56;;;;;;;;;;;;;;;23.36;48.07;101722.25;2095708;28;3887;-75
2021/06/04 05:02:57;;;;;;;;;;;;;;;23.37;48.02;101723.91;2094065;28;5052;-75
2021/06/04 05:03:59;;;;;;;;;;;;;;;23.37;48.04;101717.38;2094222;28;4013;-75
2021/06/04 05:05:00;;;;;;;;;;;;;;;23.37;48.14;101720.22;2097324;28;4096;-75
2021/06/04 05:06:01;;;;;;;;;;;;;;;23.37;48.08;101723.91;2097310;28;4026;-75
2021/06/04 05:07:03;;;;;;;;;;;;;;;23.37;48.02;101723.06;2094290;28;3859;-74
2021/06/04 05:08:04;;;;;;;;;;;;;;;23.36;48.11;101719.38;2096134;28;3864;-74
2021/06/04 05:09:05;;;;;;;;;;;;;;;23.37;48.05;101723.06;2095520;28;3913;-75
2021/06/04 05:10:06;;;;;;;;;;;;;;;23.36;48.13;101715.72;2096737;28;4135;-75
2021/06/04 05:11:08;;;;;;;;;;;;;;;23.37;48.12;101717.38;2094482;28;4085;-75
2021/06/04 05:12:09;;;;;;;;;;;;;;;23.37;48.08;101711.66;2097415;28;4012;-75
2021/06/04 05:13:10;;;;;;;;;;;;;;;23.36;48.10;101713.69;2097797;28;3998;-75
2021/06/04 05:14:11;;;;;;;;;;;;;;;23.36;48.13;101710.81;2094359;28;4036;-75
2021/06/04 05:15:13;;;;;;;;;;;;;;;23.36;47.99;101716.53;2087429;28;4023;-75
2021/06/04 05:16:14;;;;;;;;;;;;;;;23.36;48.13;101716.53;2085641;28;4071;-75
2021/06/04 05:17:17;;;;;;;;;;;;;;;23.37;48.12;101720.22;2092647;28;4010;-75
2021/06/04 05:18:18;;;;;;;;;;;;;;;23.37;48.22;101718.19;2095817;28;3993;-75
2021/06/04 05:19:20;;;;;;;;;;;;;;;23.36;48.20;101716.53;2096855;28;3779;-73